Denio, NV

10:28 AM PDT on 02. September 2014 (GMT -0700)
Winnemucca Municipal | Change Station
CLOSE
Current Station
Airport
Location: Winnemucca,
Elevation: 4311 ft
Nearby Weather Stations

Elev 4311 ft 40.90 °N, 117.81 °W | Updated 32 minutes ago

Clear
Heiðskírt
73 °F
Feels Like 73 °F
N
7
Vindur Breytileg vindátt Vindur from NA

Í dag
High -- | Low -- °F
--% Chance of Precip.
Yesterday
High -- | Low -- °F
Precip. -- in
6:21 AM 7:26 PM
First Quarter, 53% visible
Loftþrýstingur 29.89 in
Skyggni 10.0 miles
Clouds Heiðskírt
Daggarmark 32 °F
Raki 22%
Rainfall 0.00 in
Snow Depth Not available.
UV 5 out of 12
Pollen 8.10 out of 12
Air Quality Not available.
Flu Activity Not available.
METAR KWMC 021656Z AUTO 05006KT 10SM CLR 23/00 A3000 RMK AO2 SLP120 T02280000

More Conditions Fewer Conditions

Loftþrýstingur 29.89 in
Skyggni 10.0 miles
Clouds Heiðskírt
Daggarmark 32 °F
Raki 22%
Rainfall 0.00 in
Snow Depth Not available.
UV 5 out of 12
Pollen 8.10 out of 12
Air Quality Not available.
Flu Activity Not available.
METAR KWMC 021656Z AUTO 05006KT 10SM CLR 23/00 A3000 RMK AO2 SLP120 T02280000

More Conditions Fewer Conditions

10-Day Weather Forecast

Almanac

Astronomy

Sep. 02, 2014 Rise Set
Actual Time 6:21 AM PDT 7:26 PM PDT
Civil Twilight 5:52 AM PDT 7:54 PM PDT
Nautical Twilight 5:18 AM PDT 8:28 PM PDT
Astronomical Twilight 4:42 AM PDT 9:04 PM PDT
Moon 2:17 PM PDT Tungl sest ekki
Length Of Visible Light 14h 02m
Length of Day
13h 04m
Tomorrow will be 2m 43s shorter.
First Quarter, 53% of the Moon is Illuminated
Í dag
First Quarter
Sep 8
Full
Sep 15
Last Quarter
Sep 24
New
Oct 1
First Quarter

Today's Extremes

State Highs State Lows

Community

WunderPhotos

Upload Photos

1,749,721 photos uploaded!

WunderBlogs® & News

By Dr. Jeff Masters
Director of Meteorology, Weather Underground
By Kari Strenfel
Meteorologist, Weather Underground
By Christopher C. Burt
Weather Historian, Weather Underground
September 2, 2014
September 2, 2014
September 2, 2014

Nearby

Snow Depth

Station Depth Elevation
Sheldon 0 in 5860 ft
Buckskin Lower 3 in 6700 ft
Granite Peak 0 in 7800 ft
Jack Creek Upper 0 in 7250 ft
Jacks Peak 4 in 8420 ft

Earthquake Activity

Staður Distance Mag. Time & Date
No recent earthquake activity has been reported nearby.
Minimum magnitude displayed is 2.5.

Coastal Water Temperatures

Staður Hitastig
No Stations Reporting

Nearby Weather Stations